Butte, ND

3:01 PM CST on November 26, 2014 (GMT -0600)
Olson Farm | Change Station
CLOSE
Current Station
Personal Weather Station
Location: Max, ND
Elevation: 2008 ft
Nearby Weather Stations

Elev 2008 ft 47.77 °N, 101.17 °W | Updated 1 minute ago

Clear
Clear
5.2 °F
Feels Like -9 °F
N
9.2
Wind Variable Wind from North
Gusts 9.2 mph

Today
High -- | Low -- °F
--% Chance of Precip.
Yesterday
High -- | Low -- °F
Precip. -- in
8:04 AM 4:55 PM
Waxing Crescent, 22% visible
Pressure 30.52 in
Visibility -9999.0 miles
Clouds
Windchill -9 °F
Dew Point -3 °F
Humidity 69%
Rainfall 0.00 in
Snow Depth Not available.
UV Not available.
Pollen .10 out of 12
Air Quality Not available.
Flu Activity Not available.
METAR KN60 262052Z AUTO 01004KT M14/M17 A3038 RMK AO1 SLP335 T11391172 53005

More Conditions Fewer Conditions

Pressure 30.52 in
Visibility -9999.0 miles
Clouds
Windchill -9 °F
Dew Point -3 °F
Humidity 69%
Rainfall 0.00 in
Snow Depth Not available.
UV Not available.
Pollen .10 out of 12
Air Quality Not available.
Flu Activity Not available.
METAR KN60 262052Z AUTO 01004KT M14/M17 A3038 RMK AO1 SLP335 T11391172 53005

More Conditions Fewer Conditions

10-Day Weather Forecast

Almanac

Astronomy

Nov. 26, 2014 Rise Set
Actual Time
Civil Twilight
Nautical Twilight
Astronomical Twilight
Moon
Length of Visible Light
Length of Day
Tomorrow will be .
, % of the Moon is Illuminated

Today's Extremes

State Highs State Lows

Community

WunderPhotos

Upload Photos

1,773,870 photos uploaded!

WunderBlogs® & News

Nearby

Air Quality

  Air Quality AQ Index Pollutant
Not available.

Snow Depth

Station Depth Elevation

Earthquake Activity

City Distance Mag. Time & Date
Minimum magnitude displayed is 2.5.

Coastal Water Temperatures

Place Temperature

Nearby Weather Stations